sensor_id;sensor_type;location;lat;lon;timestamp;temperature;humidity
74224;SHT31;62585;49.706;18.216;2023-04-03T00:02:08;3.07;85.91
74224;SHT31;62585;49.706;18.216;2023-04-03T00:04:33;3.08;86.10
74224;SHT31;62585;49.706;18.216;2023-04-03T00:07:00;3.15;86.01
74224;SHT31;62585;49.706;18.216;2023-04-03T00:09:26;3.20;85.53
74224;SHT31;62585;49.706;18.216;2023-04-03T00:11:51;3.24;84.79
74224;SHT31;62585;49.706;18.216;2023-04-03T00:14:17;3.10;84.64
74224;SHT31;62585;49.706;18.216;2023-04-03T00:16:43;3.20;84.80
74224;SHT31;62585;49.706;18.216;2023-04-03T00:19:09;3.25;84.42
74224;SHT31;62585;49.706;18.216;2023-04-03T00:21:37;3.14;84.51
74224;SHT31;62585;49.706;18.216;2023-04-03T00:24:03;3.07;84.31
74224;SHT31;62585;49.706;18.216;2023-04-03T00:26:29;3.10;84.98
74224;SHT31;62585;49.706;18.216;2023-04-03T00:28:55;3.05;84.61
74224;SHT31;62585;49.706;18.216;2023-04-03T00:31:21;3.03;84.43
74224;SHT31;62585;49.706;18.216;2023-04-03T00:33:47;3.01;84.95
74224;SHT31;62585;49.706;18.216;2023-04-03T00:36:13;3.13;84.41
74224;SHT31;62585;49.706;18.216;2023-04-03T00:38:39;3.05;84.34
74224;SHT31;62585;49.706;18.216;2023-04-03T00:41:05;3.11;84.00
74224;SHT31;62585;49.706;18.216;2023-04-03T00:43:31;3.08;84.21
74224;SHT31;62585;49.706;18.216;2023-04-03T00:45:58;3.13;84.56
74224;SHT31;62585;49.706;18.216;2023-04-03T00:48:30;3.03;85.26
74224;SHT31;62585;49.706;18.216;2023-04-03T00:50:58;3.03;85.31
74224;SHT31;62585;49.706;18.216;2023-04-03T00:53:30;2.94;86.05
74224;SHT31;62585;49.706;18.216;2023-04-03T00:55:57;2.94;85.94
74224;SHT31;62585;49.706;18.216;2023-04-03T00:58:32;3.00;86.25
74224;SHT31;62585;49.706;18.216;2023-04-03T01:01:04;2.94;86.84
74224;SHT31;62585;49.706;18.216;2023-04-03T01:03:33;3.00;86.87
74224;SHT31;62585;49.706;18.216;2023-04-03T01:06:00;3.03;86.35
74224;SHT31;62585;49.706;18.216;2023-04-03T01:08:25;3.05;86.33
74224;SHT31;62585;49.706;18.216;2023-04-03T01:10:51;3.05;86.41
74224;SHT31;62585;49.706;18.216;2023-04-03T01:13:26;3.05;86.62
74224;SHT31;62585;49.706;18.216;2023-04-03T01:15:53;2.97;87.06
74224;SHT31;62585;49.706;18.216;2023-04-03T01:18:20;2.92;87.38
74224;SHT31;62585;49.706;18.216;2023-04-03T01:26:39;2.94;87.33
74224;SHT31;62585;49.706;18.216;2023-04-03T01:29:05;3.00;86.61
74224;SHT31;62585;49.706;18.216;2023-04-03T01:34:11;2.96;87.84
74224;SHT31;62585;49.706;18.216;2023-04-03T01:36:37;2.94;87.67
74224;SHT31;62585;49.706;18.216;2023-04-03T01:39:02;2.89;88.08
74224;SHT31;62585;49.706;18.216;2023-04-03T01:41:28;2.84;88.14
74224;SHT31;62585;49.706;18.216;2023-04-03T01:43:54;2.77;88.23
74224;SHT31;62585;49.706;18.216;2023-04-03T01:46:21;2.73;88.22
74224;SHT31;62585;49.706;18.216;2023-04-03T01:48:47;2.77;88.01
74224;SHT31;62585;49.706;18.216;2023-04-03T01:51:13;2.82;88.33
74224;SHT31;62585;49.706;18.216;2023-04-03T01:53:38;2.82;88.43
74224;SHT31;62585;49.706;18.216;2023-04-03T01:56:04;2.80;88.11
74224;SHT31;62585;49.706;18.216;2023-04-03T01:58:30;2.76;88.49
74224;SHT31;62585;49.706;18.216;2023-04-03T02:00:56;2.73;88.67
74224;SHT31;62585;49.706;18.216;2023-04-03T02:03:22;2.73;88.66
74224;SHT31;62585;49.706;18.216;2023-04-03T02:05:49;2.69;88.97
74224;SHT31;62585;49.706;18.216;2023-04-03T02:08:15;2.60;88.93
74224;SHT31;62585;49.706;18.216;2023-04-03T02:13:19;2.62;88.79
74224;SHT31;62585;49.706;18.216;2023-04-03T02:15:45;2.65;89.00
74224;SHT31;62585;49.706;18.216;2023-04-03T02:18:11;2.60;88.63
74224;SHT31;62585;49.706;18.216;2023-04-03T02:20:37;2.60;88.47
74224;SHT31;62585;49.706;18.216;2023-04-03T02:23:03;2.53;88.31
74224;SHT31;62585;49.706;18.216;2023-04-03T02:25:31;2.42;88.39
74224;SHT31;62585;49.706;18.216;2023-04-03T02:27:57;2.44;89.06
74224;SHT31;62585;49.706;18.216;2023-04-03T02:30:23;2.45;88.86
74224;SHT31;62585;49.706;18.216;2023-04-03T02:32:48;2.53;88.74
74224;SHT31;62585;49.706;18.216;2023-04-03T02:35:14;2.60;88.33
74224;SHT31;62585;49.706;18.216;2023-04-03T02:37:40;2.53;88.21
74224;SHT31;62585;49.706;18.216;2023-04-03T02:40:07;2.48;88.44
74224;SHT31;62585;49.706;18.216;2023-04-03T02:42:33;2.46;88.36
74224;SHT31;62585;49.706;18.216;2023-04-03T02:44:58;2.38;88.82
74224;SHT31;62585;49.706;18.216;2023-04-03T02:47:26;2.45;89.19
74224;SHT31;62585;49.706;18.216;2023-04-03T02:49:53;2.44;88.95
74224;SHT31;62585;49.706;18.216;2023-04-03T02:52:18;2.41;88.48
74224;SHT31;62585;49.706;18.216;2023-04-03T02:54:45;2.32;88.65
74224;SHT31;62585;49.706;18.216;2023-04-03T02:57:10;2.35;88.89
74224;SHT31;62585;49.706;18.216;2023-04-03T02:59:36;2.34;89.15
74224;SHT31;62585;49.706;18.216;2023-04-03T03:02:08;2.22;88.67
74224;SHT31;62585;49.706;18.216;2023-04-03T03:04:35;2.22;88.61
74224;SHT31;62585;49.706;18.216;2023-04-03T03:07:01;2.22;89.16
74224;SHT31;62585;49.706;18.216;2023-04-03T03:09:27;2.21;89.11
74224;SHT31;62585;49.706;18.216;2023-04-03T03:11:53;2.22;88.83
74224;SHT31;62585;49.706;18.216;2023-04-03T03:14:19;2.22;88.84
74224;SHT31;62585;49.706;18.216;2023-04-03T03:16:44;2.03;88.90
74224;SHT31;62585;49.706;18.216;2023-04-03T03:19:10;2.04;88.92
74224;SHT31;62585;49.706;18.216;2023-04-03T03:21:36;1.96;89.38
74224;SHT31;62585;49.706;18.216;2023-04-03T03:24:02;2.07;89.21
74224;SHT31;62585;49.706;18.216;2023-04-03T03:26:28;2.00;89.40
74224;SHT31;62585;49.706;18.216;2023-04-03T03:28:54;2.03;88.69
74224;SHT31;62585;49.706;18.216;2023-04-03T03:31:20;2.00;88.00
74224;SHT31;62585;49.706;18.216;2023-04-03T03:33:46;2.08;88.39
74224;SHT31;62585;49.706;18.216;2023-04-03T03:36:11;1.94;87.70
74224;SHT31;62585;49.706;18.216;2023-04-03T03:38:37;1.90;88.04
74224;SHT31;62585;49.706;18.216;2023-04-03T03:41:03;1.91;88.44
74224;SHT31;62585;49.706;18.216;2023-04-03T03:43:30;1.94;87.40
74224;SHT31;62585;49.706;18.216;2023-04-03T03:45:55;2.01;86.98
74224;SHT31;62585;49.706;18.216;2023-04-03T03:48:22;1.90;86.39
74224;SHT31;62585;49.706;18.216;2023-04-03T03:50:48;1.97;86.28
74224;SHT31;62585;49.706;18.216;2023-04-03T03:53:15;1.81;86.90
74224;SHT31;62585;49.706;18.216;2023-04-03T03:55:40;1.86;86.75
74224;SHT31;62585;49.706;18.216;2023-04-03T03:58:06;1.97;85.82
74224;SHT31;62585;49.706;18.216;2023-04-03T04:00:32;1.93;85.66
74224;SHT31;62585;49.706;18.216;2023-04-03T04:02:58;1.91;85.45
74224;SHT31;62585;49.706;18.216;2023-04-03T04:05:24;1.94;85.09
74224;SHT31;62585;49.706;18.216;2023-04-03T04:07:50;1.96;84.49
74224;SHT31;62585;49.706;18.216;2023-04-03T04:10:16;1.91;84.85
74224;SHT31;62585;49.706;18.216;2023-04-03T04:12:42;1.88;84.23
74224;SHT31;62585;49.706;18.216;2023-04-03T04:15:08;1.90;84.42
74224;SHT31;62585;49.706;18.216;2023-04-03T04:17:34;1.81;84.52
74224;SHT31;62585;49.706;18.216;2023-04-03T04:20:02;1.81;84.45
74224;SHT31;62585;49.706;18.216;2023-04-03T04:22:28;1.76;83.52
74224;SHT31;62585;49.706;18.216;2023-04-03T04:24:54;1.83;84.00
74224;SHT31;62585;49.706;18.216;2023-04-03T04:27:20;1.77;84.16
74224;SHT31;62585;49.706;18.216;2023-04-03T04:29:45;1.81;83.81
74224;SHT31;62585;49.706;18.216;2023-04-03T04:32:11;1.80;83.56
74224;SHT31;62585;49.706;18.216;2023-04-03T04:34:37;1.74;84.07
74224;SHT31;62585;49.706;18.216;2023-04-03T04:37:03;1.80;83.92
74224;SHT31;62585;49.706;18.216;2023-04-03T04:39:28;1.64;83.44
74224;SHT31;62585;49.706;18.216;2023-04-03T04:41:54;1.59;83.69
74224;SHT31;62585;49.706;18.216;2023-04-03T04:44:20;1.60;84.13
74224;SHT31;62585;49.706;18.216;2023-04-03T04:46:46;1.55;83.56
74224;SHT31;62585;49.706;18.216;2023-04-03T04:49:12;1.58;83.44
74224;SHT31;62585;49.706;18.216;2023-04-03T04:51:37;1.63;83.07
74224;SHT31;62585;49.706;18.216;2023-04-03T04:54:03;1.50;83.21
74224;SHT31;62585;49.706;18.216;2023-04-03T04:56:29;1.53;83.05
74224;SHT31;62585;49.706;18.216;2023-04-03T04:58:55;1.53;82.95
74224;SHT31;62585;49.706;18.216;2023-04-03T05:01:21;1.42;83.25
74224;SHT31;62585;49.706;18.216;2023-04-03T05:03:46;1.38;82.80
74224;SHT31;62585;49.706;18.216;2023-04-03T05:06:13;1.39;82.60
74224;SHT31;62585;49.706;18.216;2023-04-03T05:08:39;1.17;81.75
74224;SHT31;62585;49.706;18.216;2023-04-03T05:11:05;1.19;82.82
74224;SHT31;62585;49.706;18.216;2023-04-03T05:13:30;1.19;83.26
74224;SHT31;62585;49.706;18.216;2023-04-03T05:15:56;1.35;82.99
74224;SHT31;62585;49.706;18.216;2023-04-03T05:18:22;1.29;82.55
74224;SHT31;62585;49.706;18.216;2023-04-03T05:20:49;1.28;82.27
74224;SHT31;62585;49.706;18.216;2023-04-03T05:23:16;1.36;81.99
74224;SHT31;62585;49.706;18.216;2023-04-03T05:25:42;1.18;82.05
74224;SHT31;62585;49.706;18.216;2023-04-03T05:28:09;1.18;82.87
74224;SHT31;62585;49.706;18.216;2023-04-03T05:30:35;1.14;82.09
74224;SHT31;62585;49.706;18.216;2023-04-03T05:33:01;1.17;81.58
74224;SHT31;62585;49.706;18.216;2023-04-03T05:37:56;1.14;81.70
74224;SHT31;62585;49.706;18.216;2023-04-03T05:40:22;1.19;81.68
74224;SHT31;62585;49.706;18.216;2023-04-03T05:42:48;1.21;82.16
74224;SHT31;62585;49.706;18.216;2023-04-03T05:45:14;1.19;81.63
74224;SHT31;62585;49.706;18.216;2023-04-03T05:47:39;1.14;81.54
74224;SHT31;62585;49.706;18.216;2023-04-03T05:50:06;1.04;82.02
74224;SHT31;62585;49.706;18.216;2023-04-03T05:52:36;1.01;80.93
74224;SHT31;62585;49.706;18.216;2023-04-03T05:55:02;1.09;81.63
74224;SHT31;62585;49.706;18.216;2023-04-03T05:57:28;1.01;81.12
74224;SHT31;62585;49.706;18.216;2023-04-03T05:59:54;1.11;81.18
74224;SHT31;62585;49.706;18.216;2023-04-03T06:02:21;1.08;80.85
74224;SHT31;62585;49.706;18.216;2023-04-03T06:04:48;1.15;81.63
74224;SHT31;62585;49.706;18.216;2023-04-03T06:07:16;1.09;81.38
74224;SHT31;62585;49.706;18.216;2023-04-03T06:09:43;1.18;81.64
74224;SHT31;62585;49.706;18.216;2023-04-03T06:12:09;1.17;81.00
74224;SHT31;62585;49.706;18.216;2023-04-03T06:14:35;1.17;81.20
74224;SHT31;62585;49.706;18.216;2023-04-03T06:17:01;1.19;80.62
74224;SHT31;62585;49.706;18.216;2023-04-03T06:19:28;1.22;80.82
74224;SHT31;62585;49.706;18.216;2023-04-03T06:21:53;1.25;81.12
74224;SHT31;62585;49.706;18.216;2023-04-03T06:24:20;1.22;81.30
74224;SHT31;62585;49.706;18.216;2023-04-03T06:26:47;1.19;80.04
74224;SHT31;62585;49.706;18.216;2023-04-03T06:29:13;1.25;80.29
74224;SHT31;62585;49.706;18.216;2023-04-03T06:31:39;1.24;79.76
74224;SHT31;62585;49.706;18.216;2023-04-03T06:34:05;1.25;80.55
74224;SHT31;62585;49.706;18.216;2023-04-03T06:36:33;1.31;81.00
74224;SHT31;62585;49.706;18.216;2023-04-03T06:38:59;1.35;80.52
74224;SHT31;62585;49.706;18.216;2023-04-03T06:41:24;1.38;80.07
74224;SHT31;62585;49.706;18.216;2023-04-03T06:43:51;1.43;80.86
74224;SHT31;62585;49.706;18.216;2023-04-03T06:46:19;1.50;80.28
74224;SHT31;62585;49.706;18.216;2023-04-03T06:48:45;1.46;80.36
74224;SHT31;62585;49.706;18.216;2023-04-03T06:53:42;1.58;80.02
74224;SHT31;62585;49.706;18.216;2023-04-03T06:56:08;1.76;80.53
74224;SHT31;62585;49.706;18.216;2023-04-03T06:58:34;1.98;79.75
74224;SHT31;62585;49.706;18.216;2023-04-03T07:00:59;2.06;79.65
74224;SHT31;62585;49.706;18.216;2023-04-03T07:03:25;1.80;77.79
74224;SHT31;62585;49.706;18.216;2023-04-03T07:05:51;1.97;78.96
74224;SHT31;62585;49.706;18.216;2023-04-03T07:08:17;1.98;78.91
74224;SHT31;62585;49.706;18.216;2023-04-03T07:10:43;1.98;78.72
74224;SHT31;62585;49.706;18.216;2023-04-03T07:13:09;2.04;77.47
74224;SHT31;62585;49.706;18.216;2023-04-03T07:15:34;2.11;78.38
74224;SHT31;62585;49.706;18.216;2023-04-03T07:18:01;2.14;77.21
74224;SHT31;62585;49.706;18.216;2023-04-03T07:20:27;2.21;78.84
74224;SHT31;62585;49.706;18.216;2023-04-03T07:22:53;2.20;77.03
74224;SHT31;62585;49.706;18.216;2023-04-03T07:25:18;2.32;77.27
74224;SHT31;62585;49.706;18.216;2023-04-03T07:27:44;2.29;75.24
74224;SHT31;62585;49.706;18.216;2023-04-03T07:30:10;2.35;77.21
74224;SHT31;62585;49.706;18.216;2023-04-03T07:32:36;2.50;74.60
74224;SHT31;62585;49.706;18.216;2023-04-03T07:35:03;2.53;75.24
74224;SHT31;62585;49.706;18.216;2023-04-03T07:37:29;2.44;74.67
74224;SHT31;62585;49.706;18.216;2023-04-03T07:39:55;2.41;74.86
74224;SHT31;62585;49.706;18.216;2023-04-03T07:42:22;2.42;75.96
74224;SHT31;62585;49.706;18.216;2023-04-03T07:44:48;2.50;73.86
74224;SHT31;62585;49.706;18.216;2023-04-03T07:47:14;2.56;74.41
74224;SHT31;62585;49.706;18.216;2023-04-03T07:49:41;2.35;74.59
74224;SHT31;62585;49.706;18.216;2023-04-03T07:52:07;2.55;74.51
74224;SHT31;62585;49.706;18.216;2023-04-03T07:54:34;2.77;74.04
74224;SHT31;62585;49.706;18.216;2023-04-03T07:57:00;2.93;73.17
74224;SHT31;62585;49.706;18.216;2023-04-03T07:59:26;2.92;73.76
74224;SHT31;62585;49.706;18.216;2023-04-03T08:01:52;3.14;74.40
74224;SHT31;62585;49.706;18.216;2023-04-03T08:04:18;3.28;74.63
74224;SHT31;62585;49.706;18.216;2023-04-03T08:06:43;3.45;72.69
74224;SHT31;62585;49.706;18.216;2023-04-03T08:09:09;3.55;71.78
74224;SHT31;62585;49.706;18.216;2023-04-03T08:11:37;3.56;73.03
74224;SHT31;62585;49.706;18.216;2023-04-03T08:14:03;3.75;70.49
74224;SHT31;62585;49.706;18.216;2023-04-03T08:16:29;3.96;69.27
74224;SHT31;62585;49.706;18.216;2023-04-03T08:18:55;4.28;70.34
74224;SHT31;62585;49.706;18.216;2023-04-03T08:21:21;4.55;68.67
74224;SHT31;62585;49.706;18.216;2023-04-03T08:23:50;4.48;69.20
74224;SHT31;62585;49.706;18.216;2023-04-03T08:26:19;4.13;68.82
74224;SHT31;62585;49.706;18.216;2023-04-03T08:28:47;3.93;69.94
74224;SHT31;62585;49.706;18.216;2023-04-03T08:31:18;3.63;70.12
74224;SHT31;62585;49.706;18.216;2023-04-03T08:33:44;3.75;69.16
74224;SHT31;62585;49.706;18.216;2023-04-03T08:36:23;3.68;67.67
74224;SHT31;62585;49.706;18.216;2023-04-03T08:38:49;3.62;68.37
74224;SHT31;62585;49.706;18.216;2023-04-03T08:41:20;3.61;67.42
74224;SHT31;62585;49.706;18.216;2023-04-03T08:44:22;3.59;68.72
74224;SHT31;62585;49.706;18.216;2023-04-03T08:49:51;3.61;65.91
74224;SHT31;62585;49.706;18.216;2023-04-03T08:52:25;3.85;65.10
74224;SHT31;62585;49.706;18.216;2023-04-03T08:54:56;3.91;62.86
74224;SHT31;62585;49.706;18.216;2023-04-03T08:57:32;4.11;65.33
74224;SHT31;62585;49.706;18.216;2023-04-03T09:00:16;4.30;66.12
74224;SHT31;62585;49.706;18.216;2023-04-03T09:02:50;4.16;61.70
74224;SHT31;62585;49.706;18.216;2023-04-03T09:05:19;4.13;65.74
74224;SHT31;62585;49.706;18.216;2023-04-03T09:07:51;3.61;66.79
74224;SHT31;62585;49.706;18.216;2023-04-03T09:10:24;3.73;68.51
74224;SHT31;62585;49.706;18.216;2023-04-03T09:12:59;3.69;68.07
74224;SHT31;62585;49.706;18.216;2023-04-03T09:15:26;3.65;68.43
74224;SHT31;62585;49.706;18.216;2023-04-03T09:20:38;3.63;69.16
74224;SHT31;62585;49.706;18.216;2023-04-03T09:25:47;4.21;67.66
74224;SHT31;62585;49.706;18.216;2023-04-03T09:28:14;4.85;70.33
74224;SHT31;62585;49.706;18.216;2023-04-03T09:30:40;5.28;67.77
74224;SHT31;62585;49.706;18.216;2023-04-03T09:33:07;5.86;67.39
74224;SHT31;62585;49.706;18.216;2023-04-03T09:35:36;6.10;66.53
74224;SHT31;62585;49.706;18.216;2023-04-03T09:40:39;5.62;60.31
74224;SHT31;62585;49.706;18.216;2023-04-03T09:43:26;5.06;58.84
74224;SHT31;62585;49.706;18.216;2023-04-03T09:45:53;4.80;57.39
74224;SHT31;62585;49.706;18.216;2023-04-03T09:48:22;4.83;58.25
74224;SHT31;62585;49.706;18.216;2023-04-03T09:53:33;4.76;58.89
74224;SHT31;62585;49.706;18.216;2023-04-03T09:56:00;4.86;59.32
74224;SHT31;62585;49.706;18.216;2023-04-03T09:58:31;4.73;57.23
74224;SHT31;62585;49.706;18.216;2023-04-03T10:01:00;4.42;58.29
74224;SHT31;62585;49.706;18.216;2023-04-03T10:03:35;4.21;59.58
74224;SHT31;62585;49.706;18.216;2023-04-03T10:06:22;4.45;62.08
74224;SHT31;62585;49.706;18.216;2023-04-03T10:09:00;4.62;61.55
74224;SHT31;62585;49.706;18.216;2023-04-03T10:11:26;5.10;61.32
74224;SHT31;62585;49.706;18.216;2023-04-03T10:13:57;5.07;59.56
74224;SHT31;62585;49.706;18.216;2023-04-03T10:16:28;5.16;59.02
74224;SHT31;62585;49.706;18.216;2023-04-03T10:19:03;5.00;55.84
74224;SHT31;62585;49.706;18.216;2023-04-03T10:21:41;5.00;55.47
74224;SHT31;62585;49.706;18.216;2023-04-03T10:26:58;4.62;55.96
74224;SHT31;62585;49.706;18.216;2023-04-03T10:32:02;5.55;55.64
74224;SHT31;62585;49.706;18.216;2023-04-03T10:34:37;6.24;57.24
74224;SHT31;62585;49.706;18.216;2023-04-03T10:37:08;5.93;51.34
74224;SHT31;62585;49.706;18.216;2023-04-03T10:39:46;5.37;53.18
74224;SHT31;62585;49.706;18.216;2023-04-03T10:42:28;5.22;56.82
74224;SHT31;62585;49.706;18.216;2023-04-03T10:45:26;5.12;56.89
74224;SHT31;62585;49.706;18.216;2023-04-03T10:56:10;4.69;57.78
74224;SHT31;62585;49.706;18.216;2023-04-03T10:59:03;5.17;57.01
74224;SHT31;62585;49.706;18.216;2023-04-03T11:01:36;5.90;54.40
74224;SHT31;62585;49.706;18.216;2023-04-03T11:04:05;6.24;55.43
74224;SHT31;62585;49.706;18.216;2023-04-03T11:06:46;6.30;46.32
74224;SHT31;62585;49.706;18.216;2023-04-03T11:09:24;6.14;46.46
74224;SHT31;62585;49.706;18.216;2023-04-03T11:12:00;6.31;47.30
74224;SHT31;62585;49.706;18.216;2023-04-03T11:14:30;6.40;47.05
74224;SHT31;62585;49.706;18.216;2023-04-03T11:17:05;6.82;52.01
74224;SHT31;62585;49.706;18.216;2023-04-03T11:19:39;6.55;46.04
74224;SHT31;62585;49.706;18.216;2023-04-03T11:22:23;6.26;46.48
74224;SHT31;62585;49.706;18.216;2023-04-03T11:25:13;6.67;47.46
74224;SHT31;62585;49.706;18.216;2023-04-03T11:27:50;7.10;45.47
74224;SHT31;62585;49.706;18.216;2023-04-03T11:30:27;7.40;43.77
74224;SHT31;62585;49.706;18.216;2023-04-03T11:35:23;6.77;45.93
74224;SHT31;62585;49.706;18.216;2023-04-03T11:37:51;7.13;46.16
74224;SHT31;62585;49.706;18.216;2023-04-03T11:40:29;7.44;44.29
74224;SHT31;62585;49.706;18.216;2023-04-03T11:43:26;7.67;46.86
74224;SHT31;62585;49.706;18.216;2023-04-03T11:45:55;7.26;44.43
74224;SHT31;62585;49.706;18.216;2023-04-03T11:50:59;7.30;45.68
74224;SHT31;62585;49.706;18.216;2023-04-03T11:53:34;7.74;41.78
74224;SHT31;62585;49.706;18.216;2023-04-03T12:01:05;7.31;39.54
74224;SHT31;62585;49.706;18.216;2023-04-03T12:13:42;7.70;42.17
74224;SHT31;62585;49.706;18.216;2023-04-03T12:19:27;6.93;43.64
74224;SHT31;62585;49.706;18.216;2023-04-03T12:24:38;7.93;46.80
74224;SHT31;62585;49.706;18.216;2023-04-03T12:27:21;8.46;45.44
74224;SHT31;62585;49.706;18.216;2023-04-03T12:30:03;8.59;41.37
74224;SHT31;62585;49.706;18.216;2023-04-03T12:32:45;8.06;42.74
74224;SHT31;62585;49.706;18.216;2023-04-03T12:35:28;8.03;42.31
74224;SHT31;62585;49.706;18.216;2023-04-03T12:45:41;7.85;44.36
74224;SHT31;62585;49.706;18.216;2023-04-03T12:48:14;8.26;42.55
74224;SHT31;62585;49.706;18.216;2023-04-03T12:50:41;7.43;41.29
74224;SHT31;62585;49.706;18.216;2023-04-03T12:55:37;6.93;44.35
74224;SHT31;62585;49.706;18.216;2023-04-03T12:58:25;7.03;44.56
74224;SHT31;62585;49.706;18.216;2023-04-03T13:01:03;7.19;42.75
74224;SHT31;62585;49.706;18.216;2023-04-03T13:03:29;7.15;41.95
74224;SHT31;62585;49.706;18.216;2023-04-03T13:06:01;7.30;44.14
74224;SHT31;62585;49.706;18.216;2023-04-03T13:08:27;8.12;45.05
74224;SHT31;62585;49.706;18.216;2023-04-03T13:11:10;8.43;43.16
74224;SHT31;62585;49.706;18.216;2023-04-03T13:13:37;7.95;42.39
74224;SHT31;62585;49.706;18.216;2023-04-03T13:16:10;7.60;40.81
74224;SHT31;62585;49.706;18.216;2023-04-03T13:18:36;6.98;41.74
74224;SHT31;62585;49.706;18.216;2023-04-03T13:21:11;6.72;43.93
74224;SHT31;62585;49.706;18.216;2023-04-03T13:23:40;7.71;47.98
74224;SHT31;62585;49.706;18.216;2023-04-03T13:26:08;8.01;41.24
74224;SHT31;62585;49.706;18.216;2023-04-03T13:28:34;8.07;41.42
74224;SHT31;62585;49.706;18.216;2023-04-03T13:31:08;7.71;41.52
74224;SHT31;62585;49.706;18.216;2023-04-03T13:33:56;7.48;42.73
74224;SHT31;62585;49.706;18.216;2023-04-03T13:36:27;7.23;41.82
74224;SHT31;62585;49.706;18.216;2023-04-03T13:38:59;7.16;43.93
74224;SHT31;62585;49.706;18.216;2023-04-03T13:41:37;7.36;43.20
74224;SHT31;62585;49.706;18.216;2023-04-03T13:46:49;7.92;40.46
74224;SHT31;62585;49.706;18.216;2023-04-03T13:51:52;7.51;42.26
74224;SHT31;62585;49.706;18.216;2023-04-03T13:54:37;7.20;44.34
74224;SHT31;62585;49.706;18.216;2023-04-03T13:57:28;6.67;44.86
74224;SHT31;62585;49.706;18.216;2023-04-03T14:00:20;6.88;43.09
74224;SHT31;62585;49.706;18.216;2023-04-03T14:02:47;7.17;42.48
74224;SHT31;62585;49.706;18.216;2023-04-03T14:05:13;7.77;42.78
74224;SHT31;62585;49.706;18.216;2023-04-03T14:07:42;8.37;40.42
74224;SHT31;62585;49.706;18.216;2023-04-03T14:10:09;8.39;41.46
74224;SHT31;62585;49.706;18.216;2023-04-03T14:12:41;7.71;40.98
74224;SHT31;62585;49.706;18.216;2023-04-03T14:15:28;7.30;42.10
74224;SHT31;62585;49.706;18.216;2023-04-03T14:18:12;6.93;44.50
74224;SHT31;62585;49.706;18.216;2023-04-03T14:20:39;6.75;43.50
74224;SHT31;62585;49.706;18.216;2023-04-03T14:23:11;6.65;44.18
74224;SHT31;62585;49.706;18.216;2023-04-03T14:25:54;6.45;43.91
74224;SHT31;62585;49.706;18.216;2023-04-03T14:28:26;6.26;42.23
74224;SHT31;62585;49.706;18.216;2023-04-03T14:31:01;6.13;45.42
74224;SHT31;62585;49.706;18.216;2023-04-03T14:33:31;6.24;43.47
74224;SHT31;62585;49.706;18.216;2023-04-03T14:36:18;6.71;44.65
74224;SHT31;62585;49.706;18.216;2023-04-03T14:38:59;7.31;41.84
74224;SHT31;62585;49.706;18.216;2023-04-03T14:41:35;6.86;43.87
74224;SHT31;62585;49.706;18.216;2023-04-03T14:44:11;6.59;44.50
74224;SHT31;62585;49.706;18.216;2023-04-03T14:46:55;6.23;43.17
74224;SHT31;62585;49.706;18.216;2023-04-03T14:49:35;6.38;45.49
74224;SHT31;62585;49.706;18.216;2023-04-03T14:52:20;6.44;45.17
74224;SHT31;62585;49.706;18.216;2023-04-03T14:54:48;7.00;45.00
74224;SHT31;62585;49.706;18.216;2023-04-03T14:57:14;7.33;46.96
74224;SHT31;62585;49.706;18.216;2023-04-03T14:59:41;7.26;44.47
74224;SHT31;62585;49.706;18.216;2023-04-03T15:02:29;6.88;43.98
74224;SHT31;62585;49.706;18.216;2023-04-03T15:04:59;6.63;45.21
74224;SHT31;62585;49.706;18.216;2023-04-03T15:07:28;6.13;43.58
74224;SHT31;62585;49.706;18.216;2023-04-03T15:09:55;6.03;44.07
74224;SHT31;62585;49.706;18.216;2023-04-03T15:12:25;5.82;44.48
74224;SHT31;62585;49.706;18.216;2023-04-03T15:14:51;5.92;43.60
74224;SHT31;62585;49.706;18.216;2023-04-03T15:17:20;6.33;44.93
74224;SHT31;62585;49.706;18.216;2023-04-03T15:19:47;6.44;43.50
74224;SHT31;62585;49.706;18.216;2023-04-03T15:22:20;6.50;44.77
74224;SHT31;62585;49.706;18.216;2023-04-03T15:24:46;6.21;42.29
74224;SHT31;62585;49.706;18.216;2023-04-03T15:27:13;6.16;42.72
74224;SHT31;62585;49.706;18.216;2023-04-03T15:29:41;5.88;44.91
74224;SHT31;62585;49.706;18.216;2023-04-03T15:32:08;5.59;44.79
74224;SHT31;62585;49.706;18.216;2023-04-03T15:34:35;5.58;46.12
74224;SHT31;62585;49.706;18.216;2023-04-03T15:37:01;5.66;44.93
74224;SHT31;62585;49.706;18.216;2023-04-03T15:39:27;5.59;45.44
74224;SHT31;62585;49.706;18.216;2023-04-03T15:41:53;5.51;44.30
74224;SHT31;62585;49.706;18.216;2023-04-03T15:44:20;5.44;44.08
74224;SHT31;62585;49.706;18.216;2023-04-03T15:46:47;5.50;43.14
74224;SHT31;62585;49.706;18.216;2023-04-03T15:49:14;5.69;45.28
74224;SHT31;62585;49.706;18.216;2023-04-03T15:51:40;6.11;45.02
74224;SHT31;62585;49.706;18.216;2023-04-03T15:54:06;6.13;45.33
74224;SHT31;62585;49.706;18.216;2023-04-03T15:56:32;6.06;43.72
74224;SHT31;62585;49.706;18.216;2023-04-03T15:58:57;6.00;44.07
74224;SHT31;62585;49.706;18.216;2023-04-03T16:01:23;5.83;44.31
74224;SHT31;62585;49.706;18.216;2023-04-03T16:03:49;5.61;44.02
74224;SHT31;62585;49.706;18.216;2023-04-03T16:06:18;5.50;44.65
74224;SHT31;62585;49.706;18.216;2023-04-03T16:08:46;5.48;43.67
74224;SHT31;62585;49.706;18.216;2023-04-03T16:11:12;5.24;43.38
74224;SHT31;62585;49.706;18.216;2023-04-03T16:13:38;5.14;43.92
74224;SHT31;62585;49.706;18.216;2023-04-03T16:16:04;5.06;45.33
74224;SHT31;62585;49.706;18.216;2023-04-03T16:18:31;5.07;45.40
74224;SHT31;62585;49.706;18.216;2023-04-03T16:20:59;4.89;45.89
74224;SHT31;62585;49.706;18.216;2023-04-03T16:23:25;4.95;46.06
74224;SHT31;62585;49.706;18.216;2023-04-03T16:25:50;4.96;47.30
74224;SHT31;62585;49.706;18.216;2023-04-03T16:28:17;4.86;46.21
74224;SHT31;62585;49.706;18.216;2023-04-03T16:30:47;4.85;46.40
74224;SHT31;62585;49.706;18.216;2023-04-03T16:33:13;4.76;44.38
74224;SHT31;62585;49.706;18.216;2023-04-03T16:35:39;4.62;45.42
74224;SHT31;62585;49.706;18.216;2023-04-03T16:38:07;4.51;46.52
74224;SHT31;62585;49.706;18.216;2023-04-03T16:40:33;4.36;47.16
74224;SHT31;62585;49.706;18.216;2023-04-03T16:43:01;4.44;46.91
74224;SHT31;62585;49.706;18.216;2023-04-03T16:45:26;4.30;46.89
74224;SHT31;62585;49.706;18.216;2023-04-03T16:47:53;4.37;46.53
74224;SHT31;62585;49.706;18.216;2023-04-03T16:50:18;4.22;46.89
74224;SHT31;62585;49.706;18.216;2023-04-03T16:52:48;4.27;49.23
74224;SHT31;62585;49.706;18.216;2023-04-03T16:55:13;4.31;48.35
74224;SHT31;62585;49.706;18.216;2023-04-03T16:57:39;4.20;49.32
74224;SHT31;62585;49.706;18.216;2023-04-03T17:00:06;4.33;49.02
74224;SHT31;62585;49.706;18.216;2023-04-03T17:02:32;4.14;48.80
74224;SHT31;62585;49.706;18.216;2023-04-03T17:04:58;4.13;49.80
74224;SHT31;62585;49.706;18.216;2023-04-03T17:07:25;4.13;50.59